Southview, Pennsylvania
Current Conditions -  °F | °C
As of 10:51 PM on Wednesday 17 Dec 2014 (Local Time) from KPIT Reporting Station
Light Snow Light Snow  
Wind Chill: 18°   Ceiling: 2500
Heat Index: 29°   Visibility: 9mi
Dew Point: 21°   Wind: 15mph
Humidity: 72%   Direction: 280°W
Pressure: 30.12"   Gusts: 22mph
Location:  40.33°N, 80.26°W
Report Text: KPIT 180351Z 28013G19KT 9SM -SN OVC025 M02/M06 A3012 RMK AO2 SLP220 P0000 T10171061
Loading
Personal Weather Stations






























Interactive Weather Map New forecast layout! Learn more

10-Day Weather Forecast

Advertisements
Track Severe Weather on mobile